sensor_id;sensor_type;location;lat;lon;timestamp;P1;durP1;ratioP1;P2;durP2;ratioP2
16119;SDS011;12670;53.502;10.252;2023-04-08T00:00:55;17.07;;;8.60;;
16119;SDS011;12670;53.502;10.252;2023-04-08T00:03:58;19.20;;;8.80;;
16119;SDS011;12670;53.502;10.252;2023-04-08T00:07:01;15.47;;;8.33;;
16119;SDS011;12670;53.502;10.252;2023-04-08T00:10:04;19.73;;;9.70;;
16119;SDS011;12670;53.502;10.252;2023-04-08T00:13:07;18.17;;;8.97;;
16119;SDS011;12670;53.502;10.252;2023-04-08T00:16:11;18.97;;;9.10;;
16119;SDS011;12670;53.502;10.252;2023-04-08T00:19:14;20.07;;;8.80;;
16119;SDS011;12670;53.502;10.252;2023-04-08T00:22:17;17.47;;;9.23;;
16119;SDS011;12670;53.502;10.252;2023-04-08T00:25:20;18.33;;;9.13;;
16119;SDS011;12670;53.502;10.252;2023-04-08T00:28:25;20.23;;;9.27;;
16119;SDS011;12670;53.502;10.252;2023-04-08T00:31:29;21.67;;;9.10;;
16119;SDS011;12670;53.502;10.252;2023-04-08T00:34:32;18.50;;;8.97;;
16119;SDS011;12670;53.502;10.252;2023-04-08T00:37:34;22.10;;;9.00;;
16119;SDS011;12670;53.502;10.252;2023-04-08T00:40:37;20.03;;;7.83;;
16119;SDS011;12670;53.502;10.252;2023-04-08T00:43:40;16.40;;;8.47;;
16119;SDS011;12670;53.502;10.252;2023-04-08T00:46:44;17.37;;;9.03;;
16119;SDS011;12670;53.502;10.252;2023-04-08T00:49:47;18.53;;;8.27;;
16119;SDS011;12670;53.502;10.252;2023-04-08T00:52:50;14.23;;;7.60;;
16119;SDS011;12670;53.502;10.252;2023-04-08T00:55:53;15.80;;;7.50;;
16119;SDS011;12670;53.502;10.252;2023-04-08T00:58:55;13.83;;;7.37;;
16119;SDS011;12670;53.502;10.252;2023-04-08T01:02:02;17.97;;;7.73;;
16119;SDS011;12670;53.502;10.252;2023-04-08T01:05:15;16.00;;;7.50;;
16119;SDS011;12670;53.502;10.252;2023-04-08T01:08:22;12.93;;;7.93;;
16119;SDS011;12670;53.502;10.252;2023-04-08T01:11:29;15.40;;;7.67;;
16119;SDS011;12670;53.502;10.252;2023-04-08T01:14:37;13.93;;;7.33;;
16119;SDS011;12670;53.502;10.252;2023-04-08T01:17:45;16.07;;;7.50;;
16119;SDS011;12670;53.502;10.252;2023-04-08T01:20:49;14.73;;;7.83;;
16119;SDS011;12670;53.502;10.252;2023-04-08T01:23:54;13.20;;;7.20;;
16119;SDS011;12670;53.502;10.252;2023-04-08T01:27:03;13.00;;;7.50;;
16119;SDS011;12670;53.502;10.252;2023-04-08T01:30:08;14.80;;;8.03;;
16119;SDS011;12670;53.502;10.252;2023-04-08T01:33:12;15.10;;;7.57;;
16119;SDS011;12670;53.502;10.252;2023-04-08T01:36:16;15.93;;;7.67;;
16119;SDS011;12670;53.502;10.252;2023-04-08T01:39:21;17.03;;;7.50;;
16119;SDS011;12670;53.502;10.252;2023-04-08T01:42:26;16.77;;;7.63;;
16119;SDS011;12670;53.502;10.252;2023-04-08T01:45:30;15.23;;;7.87;;
16119;SDS011;12670;53.502;10.252;2023-04-08T01:48:33;17.60;;;7.63;;
16119;SDS011;12670;53.502;10.252;2023-04-08T01:51:37;14.63;;;7.60;;
16119;SDS011;12670;53.502;10.252;2023-04-08T01:54:40;15.03;;;7.50;;
16119;SDS011;12670;53.502;10.252;2023-04-08T01:57:46;14.37;;;7.37;;
16119;SDS011;12670;53.502;10.252;2023-04-08T02:00:51;13.87;;;7.40;;
16119;SDS011;12670;53.502;10.252;2023-04-08T02:03:56;15.37;;;7.60;;
16119;SDS011;12670;53.502;10.252;2023-04-08T02:07:00;14.67;;;7.20;;
16119;SDS011;12670;53.502;10.252;2023-04-08T02:10:04;16.03;;;8.13;;
16119;SDS011;12670;53.502;10.252;2023-04-08T02:13:09;12.97;;;7.10;;
16119;SDS011;12670;53.502;10.252;2023-04-08T02:16:13;14.07;;;7.40;;
16119;SDS011;12670;53.502;10.252;2023-04-08T02:19:23;14.17;;;7.67;;
16119;SDS011;12670;53.502;10.252;2023-04-08T02:22:35;13.47;;;6.90;;
16119;SDS011;12670;53.502;10.252;2023-04-08T02:25:42;18.50;;;7.00;;
16119;SDS011;12670;53.502;10.252;2023-04-08T02:28:47;14.57;;;6.87;;
16119;SDS011;12670;53.502;10.252;2023-04-08T02:31:51;15.07;;;6.87;;
16119;SDS011;12670;53.502;10.252;2023-04-08T02:34:55;17.40;;;7.13;;
16119;SDS011;12670;53.502;10.252;2023-04-08T02:37:59;12.00;;;6.73;;
16119;SDS011;12670;53.502;10.252;2023-04-08T02:41:01;10.07;;;6.10;;
16119;SDS011;12670;53.502;10.252;2023-04-08T02:44:05;14.00;;;6.77;;
16119;SDS011;12670;53.502;10.252;2023-04-08T02:47:08;11.83;;;7.03;;
16119;SDS011;12670;53.502;10.252;2023-04-08T02:50:11;13.17;;;7.17;;
16119;SDS011;12670;53.502;10.252;2023-04-08T02:53:13;13.90;;;6.40;;
16119;SDS011;12670;53.502;10.252;2023-04-08T02:56:16;14.90;;;5.97;;
16119;SDS011;12670;53.502;10.252;2023-04-08T02:59:20;12.73;;;7.33;;
16119;SDS011;12670;53.502;10.252;2023-04-08T03:02:22;12.33;;;6.97;;
16119;SDS011;12670;53.502;10.252;2023-04-08T03:05:25;14.50;;;7.47;;
16119;SDS011;12670;53.502;10.252;2023-04-08T03:08:28;15.57;;;7.83;;
16119;SDS011;12670;53.502;10.252;2023-04-08T03:11:30;13.27;;;7.20;;
16119;SDS011;12670;53.502;10.252;2023-04-08T03:14:34;15.57;;;7.93;;
16119;SDS011;12670;53.502;10.252;2023-04-08T03:17:37;17.67;;;7.67;;
16119;SDS011;12670;53.502;10.252;2023-04-08T03:20:40;15.03;;;7.67;;
16119;SDS011;12670;53.502;10.252;2023-04-08T03:23:43;16.97;;;8.30;;
16119;SDS011;12670;53.502;10.252;2023-04-08T03:26:45;19.20;;;8.80;;
16119;SDS011;12670;53.502;10.252;2023-04-08T03:29:49;19.60;;;8.90;;
16119;SDS011;12670;53.502;10.252;2023-04-08T03:32:53;20.73;;;9.03;;
16119;SDS011;12670;53.502;10.252;2023-04-08T03:35:56;17.43;;;9.17;;
16119;SDS011;12670;53.502;10.252;2023-04-08T03:38:59;21.20;;;10.63;;
16119;SDS011;12670;53.502;10.252;2023-04-08T03:42:03;19.20;;;9.63;;
16119;SDS011;12670;53.502;10.252;2023-04-08T03:45:08;22.27;;;10.03;;
16119;SDS011;12670;53.502;10.252;2023-04-08T03:48:10;21.27;;;10.40;;
16119;SDS011;12670;53.502;10.252;2023-04-08T03:51:13;20.53;;;10.57;;
16119;SDS011;12670;53.502;10.252;2023-04-08T03:54:16;21.57;;;10.50;;
16119;SDS011;12670;53.502;10.252;2023-04-08T03:57:18;22.00;;;10.27;;
16119;SDS011;12670;53.502;10.252;2023-04-08T04:00:22;24.63;;;10.67;;
16119;SDS011;12670;53.502;10.252;2023-04-08T04:03:25;23.33;;;10.70;;
16119;SDS011;12670;53.502;10.252;2023-04-08T04:06:28;21.47;;;11.07;;
16119;SDS011;12670;53.502;10.252;2023-04-08T04:09:31;23.50;;;10.93;;
16119;SDS011;12670;53.502;10.252;2023-04-08T04:12:33;21.50;;;10.43;;
16119;SDS011;12670;53.502;10.252;2023-04-08T04:15:38;22.33;;;10.17;;
16119;SDS011;12670;53.502;10.252;2023-04-08T04:18:41;21.93;;;10.97;;
16119;SDS011;12670;53.502;10.252;2023-04-08T04:21:44;25.00;;;10.73;;
16119;SDS011;12670;53.502;10.252;2023-04-08T04:24:46;21.93;;;11.20;;
16119;SDS011;12670;53.502;10.252;2023-04-08T04:27:49;23.03;;;11.27;;
16119;SDS011;12670;53.502;10.252;2023-04-08T04:30:53;20.93;;;11.03;;
16119;SDS011;12670;53.502;10.252;2023-04-08T04:33:58;27.40;;;11.90;;
16119;SDS011;12670;53.502;10.252;2023-04-08T04:37:00;23.03;;;10.23;;
16119;SDS011;12670;53.502;10.252;2023-04-08T04:40:04;24.83;;;11.10;;
16119;SDS011;12670;53.502;10.252;2023-04-08T04:43:07;21.30;;;10.97;;
16119;SDS011;12670;53.502;10.252;2023-04-08T04:46:11;22.57;;;11.50;;
16119;SDS011;12670;53.502;10.252;2023-04-08T04:49:14;22.47;;;10.67;;
16119;SDS011;12670;53.502;10.252;2023-04-08T04:52:17;23.93;;;11.20;;
16119;SDS011;12670;53.502;10.252;2023-04-08T04:55:20;24.90;;;11.67;;
16119;SDS011;12670;53.502;10.252;2023-04-08T04:58:23;24.00;;;11.73;;
16119;SDS011;12670;53.502;10.252;2023-04-08T05:01:27;61.17;;;25.77;;
16119;SDS011;12670;53.502;10.252;2023-04-08T05:04:30;30.03;;;13.40;;
16119;SDS011;12670;53.502;10.252;2023-04-08T05:07:34;20.13;;;11.00;;
16119;SDS011;12670;53.502;10.252;2023-04-08T05:10:39;34.37;;;16.40;;
16119;SDS011;12670;53.502;10.252;2023-04-08T05:13:42;25.43;;;12.17;;
16119;SDS011;12670;53.502;10.252;2023-04-08T05:16:46;26.13;;;11.53;;
16119;SDS011;12670;53.502;10.252;2023-04-08T05:19:49;25.73;;;12.10;;
16119;SDS011;12670;53.502;10.252;2023-04-08T05:22:52;22.23;;;11.43;;
16119;SDS011;12670;53.502;10.252;2023-04-08T05:25:54;25.90;;;12.20;;
16119;SDS011;12670;53.502;10.252;2023-04-08T05:28:57;23.50;;;11.20;;
16119;SDS011;12670;53.502;10.252;2023-04-08T05:32:01;25.53;;;11.67;;
16119;SDS011;12670;53.502;10.252;2023-04-08T05:35:04;21.93;;;11.40;;
16119;SDS011;12670;53.502;10.252;2023-04-08T05:38:07;27.60;;;11.43;;
16119;SDS011;12670;53.502;10.252;2023-04-08T05:41:10;24.00;;;10.30;;
16119;SDS011;12670;53.502;10.252;2023-04-08T05:44:12;25.97;;;10.87;;
16119;SDS011;12670;53.502;10.252;2023-04-08T05:47:17;21.60;;;10.83;;
16119;SDS011;12670;53.502;10.252;2023-04-08T05:50:19;22.00;;;10.50;;
16119;SDS011;12670;53.502;10.252;2023-04-08T05:53:22;21.23;;;10.50;;
16119;SDS011;12670;53.502;10.252;2023-04-08T05:56:25;26.73;;;10.77;;
16119;SDS011;12670;53.502;10.252;2023-04-08T05:59:27;18.97;;;9.80;;
16119;SDS011;12670;53.502;10.252;2023-04-08T06:02:31;34.63;;;15.50;;
16119;SDS011;12670;53.502;10.252;2023-04-08T06:05:34;21.43;;;10.53;;
16119;SDS011;12670;53.502;10.252;2023-04-08T06:08:37;17.70;;;9.23;;
16119;SDS011;12670;53.502;10.252;2023-04-08T06:11:39;19.33;;;9.27;;
16119;SDS011;12670;53.502;10.252;2023-04-08T06:14:42;18.90;;;9.40;;
16119;SDS011;12670;53.502;10.252;2023-04-08T06:17:46;16.80;;;9.77;;
16119;SDS011;12670;53.502;10.252;2023-04-08T06:20:48;17.47;;;9.40;;
16119;SDS011;12670;53.502;10.252;2023-04-08T06:23:51;16.10;;;8.80;;
16119;SDS011;12670;53.502;10.252;2023-04-08T06:26:54;20.83;;;9.10;;
16119;SDS011;12670;53.502;10.252;2023-04-08T06:29:57;19.87;;;10.10;;
16119;SDS011;12670;53.502;10.252;2023-04-08T06:33:01;18.93;;;10.07;;
16119;SDS011;12670;53.502;10.252;2023-04-08T06:36:04;19.23;;;9.73;;
16119;SDS011;12670;53.502;10.252;2023-04-08T06:39:08;22.03;;;10.57;;
16119;SDS011;12670;53.502;10.252;2023-04-08T06:42:10;26.23;;;11.90;;
16119;SDS011;12670;53.502;10.252;2023-04-08T06:45:13;39.53;;;16.67;;
16119;SDS011;12670;53.502;10.252;2023-04-08T06:48:17;21.80;;;11.53;;
16119;SDS011;12670;53.502;10.252;2023-04-08T06:51:19;30.07;;;11.93;;
16119;SDS011;12670;53.502;10.252;2023-04-08T06:54:22;32.37;;;11.97;;
16119;SDS011;12670;53.502;10.252;2023-04-08T06:57:25;26.20;;;11.93;;
16119;SDS011;12670;53.502;10.252;2023-04-08T07:00:27;24.47;;;11.10;;
16119;SDS011;12670;53.502;10.252;2023-04-08T07:03:32;21.00;;;10.33;;
16119;SDS011;12670;53.502;10.252;2023-04-08T07:06:34;19.40;;;9.37;;
16119;SDS011;12670;53.502;10.252;2023-04-08T07:09:37;25.27;;;11.50;;
16119;SDS011;12670;53.502;10.252;2023-04-08T07:12:41;21.63;;;10.20;;
16119;SDS011;12670;53.502;10.252;2023-04-08T07:15:44;18.20;;;9.17;;
16119;SDS011;12670;53.502;10.252;2023-04-08T07:18:48;19.63;;;9.67;;
16119;SDS011;12670;53.502;10.252;2023-04-08T07:21:52;23.13;;;10.10;;
16119;SDS011;12670;53.502;10.252;2023-04-08T07:24:55;20.87;;;10.43;;
16119;SDS011;12670;53.502;10.252;2023-04-08T07:27:57;25.40;;;10.70;;
16119;SDS011;12670;53.502;10.252;2023-04-08T07:31:10;23.17;;;11.50;;
16119;SDS011;12670;53.502;10.252;2023-04-08T07:34:15;26.77;;;11.00;;
16119;SDS011;12670;53.502;10.252;2023-04-08T07:37:18;24.97;;;11.10;;
16119;SDS011;12670;53.502;10.252;2023-04-08T07:40:20;23.70;;;10.00;;
16119;SDS011;12670;53.502;10.252;2023-04-08T07:43:23;21.83;;;10.20;;
16119;SDS011;12670;53.502;10.252;2023-04-08T07:46:26;20.73;;;9.77;;
16119;SDS011;12670;53.502;10.252;2023-04-08T07:49:30;24.47;;;9.67;;
16119;SDS011;12670;53.502;10.252;2023-04-08T07:52:32;18.50;;;9.27;;
16119;SDS011;12670;53.502;10.252;2023-04-08T07:55:35;20.23;;;10.13;;
16119;SDS011;12670;53.502;10.252;2023-04-08T07:58:39;20.73;;;9.40;;
16119;SDS011;12670;53.502;10.252;2023-04-08T08:01:42;20.77;;;10.27;;
16119;SDS011;12670;53.502;10.252;2023-04-08T08:04:46;36.63;;;17.03;;
16119;SDS011;12670;53.502;10.252;2023-04-08T08:07:49;32.77;;;14.57;;
16119;SDS011;12670;53.502;10.252;2023-04-08T08:10:51;28.40;;;12.57;;
16119;SDS011;12670;53.502;10.252;2023-04-08T08:13:54;22.57;;;11.00;;
16119;SDS011;12670;53.502;10.252;2023-04-08T08:16:57;22.93;;;10.47;;
16119;SDS011;12670;53.502;10.252;2023-04-08T08:20:01;19.83;;;10.30;;
16119;SDS011;12670;53.502;10.252;2023-04-08T08:23:05;21.00;;;10.40;;
16119;SDS011;12670;53.502;10.252;2023-04-08T08:26:08;23.97;;;10.70;;
16119;SDS011;12670;53.502;10.252;2023-04-08T08:29:11;23.00;;;10.30;;
16119;SDS011;12670;53.502;10.252;2023-04-08T08:32:13;23.37;;;10.23;;
16119;SDS011;12670;53.502;10.252;2023-04-08T08:35:17;21.07;;;9.57;;
16119;SDS011;12670;53.502;10.252;2023-04-08T08:38:20;19.13;;;9.50;;
16119;SDS011;12670;53.502;10.252;2023-04-08T08:41:23;20.23;;;9.57;;
16119;SDS011;12670;53.502;10.252;2023-04-08T08:44:25;17.23;;;8.73;;
16119;SDS011;12670;53.502;10.252;2023-04-08T08:47:29;15.50;;;7.97;;
16119;SDS011;12670;53.502;10.252;2023-04-08T08:50:33;16.30;;;8.90;;
16119;SDS011;12670;53.502;10.252;2023-04-08T08:53:36;16.63;;;9.07;;
16119;SDS011;12670;53.502;10.252;2023-04-08T08:56:39;17.47;;;8.90;;
16119;SDS011;12670;53.502;10.252;2023-04-08T08:59:44;18.37;;;9.60;;
16119;SDS011;12670;53.502;10.252;2023-04-08T09:02:47;18.73;;;9.03;;
16119;SDS011;12670;53.502;10.252;2023-04-08T09:05:52;20.30;;;10.53;;
16119;SDS011;12670;53.502;10.252;2023-04-08T09:08:56;19.63;;;10.27;;
16119;SDS011;12670;53.502;10.252;2023-04-08T09:12:01;23.47;;;10.87;;
16119;SDS011;12670;53.502;10.252;2023-04-08T09:15:05;22.83;;;10.87;;
16119;SDS011;12670;53.502;10.252;2023-04-08T09:18:15;20.87;;;9.70;;
16119;SDS011;12670;53.502;10.252;2023-04-08T09:21:24;21.60;;;10.17;;
16119;SDS011;12670;53.502;10.252;2023-04-08T09:24:28;18.53;;;9.10;;
16119;SDS011;12670;53.502;10.252;2023-04-08T09:27:32;25.17;;;10.13;;
16119;SDS011;12670;53.502;10.252;2023-04-08T09:30:36;21.40;;;8.77;;
16119;SDS011;12670;53.502;10.252;2023-04-08T09:33:38;20.30;;;9.80;;
16119;SDS011;12670;53.502;10.252;2023-04-08T09:36:42;22.50;;;11.13;;
16119;SDS011;12670;53.502;10.252;2023-04-08T09:39:45;20.80;;;10.03;;
16119;SDS011;12670;53.502;10.252;2023-04-08T09:42:48;23.33;;;10.17;;
16119;SDS011;12670;53.502;10.252;2023-04-08T09:45:56;24.93;;;10.47;;
16119;SDS011;12670;53.502;10.252;2023-04-08T09:49:04;23.63;;;10.43;;
16119;SDS011;12670;53.502;10.252;2023-04-08T09:52:10;22.33;;;9.80;;
16119;SDS011;12670;53.502;10.252;2023-04-08T09:55:18;24.80;;;10.60;;
16119;SDS011;12670;53.502;10.252;2023-04-08T09:58:24;19.43;;;10.10;;
16119;SDS011;12670;53.502;10.252;2023-04-08T10:01:31;20.53;;;10.30;;
16119;SDS011;12670;53.502;10.252;2023-04-08T10:04:40;23.53;;;10.40;;
16119;SDS011;12670;53.502;10.252;2023-04-08T10:07:46;19.63;;;10.47;;
16119;SDS011;12670;53.502;10.252;2023-04-08T10:10:51;24.53;;;9.87;;
16119;SDS011;12670;53.502;10.252;2023-04-08T10:13:56;19.90;;;9.33;;
16119;SDS011;12670;53.502;10.252;2023-04-08T10:23:54;21.57;;;9.83;;
16119;SDS011;12670;53.502;10.252;2023-04-08T10:26:59;17.10;;;9.40;;
16119;SDS011;12670;53.502;10.252;2023-04-08T10:30:05;17.63;;;9.37;;
16119;SDS011;12670;53.502;10.252;2023-04-08T10:33:40;19.67;;;10.17;;
16119;SDS011;12670;53.502;10.252;2023-04-08T10:36:42;23.00;;;9.87;;
16119;SDS011;12670;53.502;10.252;2023-04-08T10:39:49;21.37;;;9.03;;
16119;SDS011;12670;53.502;10.252;2023-04-08T10:42:53;18.87;;;10.27;;
16119;SDS011;12670;53.502;10.252;2023-04-08T10:45:56;20.00;;;9.50;;
16119;SDS011;12670;53.502;10.252;2023-04-08T10:48:58;19.83;;;9.27;;
16119;SDS011;12670;53.502;10.252;2023-04-08T10:52:05;17.80;;;9.27;;
16119;SDS011;12670;53.502;10.252;2023-04-08T10:55:09;19.00;;;10.17;;
16119;SDS011;12670;53.502;10.252;2023-04-08T10:58:13;22.53;;;11.43;;
16119;SDS011;12670;53.502;10.252;2023-04-08T11:01:15;21.13;;;10.67;;
16119;SDS011;12670;53.502;10.252;2023-04-08T11:04:18;22.80;;;11.33;;
16119;SDS011;12670;53.502;10.252;2023-04-08T11:07:24;25.23;;;12.30;;
16119;SDS011;12670;53.502;10.252;2023-04-08T11:10:28;21.47;;;10.90;;
16119;SDS011;12670;53.502;10.252;2023-04-08T11:13:32;21.00;;;9.97;;
16119;SDS011;12670;53.502;10.252;2023-04-08T11:16:35;22.83;;;10.57;;
16119;SDS011;12670;53.502;10.252;2023-04-08T11:19:39;21.67;;;10.70;;
16119;SDS011;12670;53.502;10.252;2023-04-08T11:22:42;22.07;;;11.57;;
16119;SDS011;12670;53.502;10.252;2023-04-08T11:25:47;21.73;;;11.20;;
16119;SDS011;12670;53.502;10.252;2023-04-08T11:28:50;22.20;;;12.40;;
16119;SDS011;12670;53.502;10.252;2023-04-08T11:31:53;23.07;;;12.20;;
16119;SDS011;12670;53.502;10.252;2023-04-08T11:34:58;23.97;;;12.70;;
16119;SDS011;12670;53.502;10.252;2023-04-08T11:38:03;24.07;;;11.93;;
16119;SDS011;12670;53.502;10.252;2023-04-08T11:41:07;26.53;;;12.37;;
16119;SDS011;12670;53.502;10.252;2023-04-08T11:44:11;27.10;;;13.10;;
16119;SDS011;12670;53.502;10.252;2023-04-08T11:47:14;25.67;;;12.33;;
16119;SDS011;12670;53.502;10.252;2023-04-08T11:50:23;22.77;;;12.30;;
16119;SDS011;12670;53.502;10.252;2023-04-08T11:53:26;25.17;;;13.03;;
16119;SDS011;12670;53.502;10.252;2023-04-08T11:56:30;25.63;;;12.60;;
16119;SDS011;12670;53.502;10.252;2023-04-08T11:59:33;22.27;;;12.10;;
16119;SDS011;12670;53.502;10.252;2023-04-08T12:02:36;27.17;;;13.57;;
16119;SDS011;12670;53.502;10.252;2023-04-08T12:05:39;25.10;;;12.53;;
16119;SDS011;12670;53.502;10.252;2023-04-08T12:08:42;24.97;;;12.80;;
16119;SDS011;12670;53.502;10.252;2023-04-08T12:11:46;24.57;;;12.70;;
16119;SDS011;12670;53.502;10.252;2023-04-08T12:14:49;22.83;;;12.33;;
16119;SDS011;12670;53.502;10.252;2023-04-08T12:17:52;21.60;;;11.73;;
16119;SDS011;12670;53.502;10.252;2023-04-08T12:20:54;21.97;;;12.40;;
16119;SDS011;12670;53.502;10.252;2023-04-08T12:23:57;26.33;;;12.67;;
16119;SDS011;12670;53.502;10.252;2023-04-08T12:27:01;23.47;;;12.70;;
16119;SDS011;12670;53.502;10.252;2023-04-08T12:30:05;22.43;;;12.63;;
16119;SDS011;12670;53.502;10.252;2023-04-08T12:33:09;22.60;;;12.23;;
16119;SDS011;12670;53.502;10.252;2023-04-08T12:36:11;21.00;;;11.90;;
16119;SDS011;12670;53.502;10.252;2023-04-08T12:39:14;23.97;;;12.13;;
16119;SDS011;12670;53.502;10.252;2023-04-08T12:42:18;21.57;;;11.77;;
16119;SDS011;12670;53.502;10.252;2023-04-08T12:45:21;26.03;;;12.63;;
16119;SDS011;12670;53.502;10.252;2023-04-08T12:48:23;23.83;;;12.57;;
16119;SDS011;12670;53.502;10.252;2023-04-08T12:51:26;26.23;;;14.30;;
16119;SDS011;12670;53.502;10.252;2023-04-08T12:54:29;28.93;;;14.20;;
16119;SDS011;12670;53.502;10.252;2023-04-08T12:57:34;30.47;;;15.30;;
16119;SDS011;12670;53.502;10.252;2023-04-08T13:00:36;26.00;;;13.43;;
16119;SDS011;12670;53.502;10.252;2023-04-08T13:03:40;27.83;;;12.57;;
16119;SDS011;12670;53.502;10.252;2023-04-08T13:06:46;23.90;;;12.40;;
16119;SDS011;12670;53.502;10.252;2023-04-08T13:35:18;46.40;;;24.77;;
16119;SDS011;12670;53.502;10.252;2023-04-08T13:38:20;28.77;;;13.00;;
16119;SDS011;12670;53.502;10.252;2023-04-08T13:41:23;27.47;;;13.10;;
16119;SDS011;12670;53.502;10.252;2023-04-08T13:44:28;61.03;;;26.33;;
16119;SDS011;12670;53.502;10.252;2023-04-08T13:47:30;52.00;;;24.37;;
16119;SDS011;12670;53.502;10.252;2023-04-08T13:50:36;26.27;;;13.20;;
16119;SDS011;12670;53.502;10.252;2023-04-08T13:53:40;28.50;;;14.27;;
16119;SDS011;12670;53.502;10.252;2023-04-08T13:56:43;32.07;;;13.70;;
16119;SDS011;12670;53.502;10.252;2023-04-08T13:59:45;28.10;;;15.03;;
16119;SDS011;12670;53.502;10.252;2023-04-08T14:02:48;23.77;;;13.60;;
16119;SDS011;12670;53.502;10.252;2023-04-08T14:05:53;22.83;;;13.40;;
16119;SDS011;12670;53.502;10.252;2023-04-08T14:08:55;24.90;;;13.50;;
16119;SDS011;12670;53.502;10.252;2023-04-08T14:11:58;28.57;;;15.43;;
16119;SDS011;12670;53.502;10.252;2023-04-08T14:15:00;25.17;;;14.30;;
16119;SDS011;12670;53.502;10.252;2023-04-08T14:18:03;25.83;;;14.87;;
16119;SDS011;12670;53.502;10.252;2023-04-08T14:21:11;29.40;;;16.10;;
16119;SDS011;12670;53.502;10.252;2023-04-08T14:24:15;33.73;;;18.77;;
16119;SDS011;12670;53.502;10.252;2023-04-08T14:27:18;32.83;;;17.27;;
16119;SDS011;12670;53.502;10.252;2023-04-08T14:30:21;27.93;;;16.10;;
16119;SDS011;12670;53.502;10.252;2023-04-08T14:33:24;37.67;;;18.70;;
16119;SDS011;12670;53.502;10.252;2023-04-08T14:36:28;33.57;;;18.73;;
16119;SDS011;12670;53.502;10.252;2023-04-08T14:39:31;29.87;;;17.40;;
16119;SDS011;12670;53.502;10.252;2023-04-08T14:42:34;36.77;;;18.10;;
16119;SDS011;12670;53.502;10.252;2023-04-08T14:45:36;30.03;;;16.13;;
16119;SDS011;12670;53.502;10.252;2023-04-08T14:48:39;31.00;;;16.23;;
16119;SDS011;12670;53.502;10.252;2023-04-08T14:51:43;28.47;;;15.60;;
16119;SDS011;12670;53.502;10.252;2023-04-08T14:54:45;26.30;;;15.17;;
16119;SDS011;12670;53.502;10.252;2023-04-08T14:57:48;26.43;;;14.93;;
16119;SDS011;12670;53.502;10.252;2023-04-08T15:00:51;33.80;;;16.43;;
16119;SDS011;12670;53.502;10.252;2023-04-08T15:03:53;32.83;;;16.33;;
16119;SDS011;12670;53.502;10.252;2023-04-08T15:06:57;49.63;;;25.33;;
16119;SDS011;12670;53.502;10.252;2023-04-08T15:10:00;33.87;;;16.37;;
16119;SDS011;12670;53.502;10.252;2023-04-08T15:13:03;35.60;;;16.30;;
16119;SDS011;12670;53.502;10.252;2023-04-08T15:16:06;37.43;;;15.87;;
16119;SDS011;12670;53.502;10.252;2023-04-08T15:19:08;44.97;;;18.00;;
16119;SDS011;12670;53.502;10.252;2023-04-08T15:22:13;37.70;;;17.57;;
16119;SDS011;12670;53.502;10.252;2023-04-08T15:25:15;32.63;;;16.07;;
16119;SDS011;12670;53.502;10.252;2023-04-08T15:28:18;34.17;;;16.00;;
16119;SDS011;12670;53.502;10.252;2023-04-08T15:31:21;33.73;;;15.73;;
16119;SDS011;12670;53.502;10.252;2023-04-08T15:34:24;31.40;;;15.43;;
16119;SDS011;12670;53.502;10.252;2023-04-08T15:37:28;30.83;;;16.13;;
16119;SDS011;12670;53.502;10.252;2023-04-08T15:40:31;31.43;;;16.63;;
16119;SDS011;12670;53.502;10.252;2023-04-08T15:43:34;32.13;;;16.70;;
16119;SDS011;12670;53.502;10.252;2023-04-08T15:46:37;34.80;;;17.37;;
16119;SDS011;12670;53.502;10.252;2023-04-08T15:49:39;29.27;;;16.70;;
16119;SDS011;12670;53.502;10.252;2023-04-08T15:52:44;32.00;;;16.37;;
16119;SDS011;12670;53.502;10.252;2023-04-08T15:55:46;31.47;;;16.87;;
16119;SDS011;12670;53.502;10.252;2023-04-08T15:58:50;30.80;;;16.00;;
16119;SDS011;12670;53.502;10.252;2023-04-08T16:01:53;32.33;;;16.27;;
16119;SDS011;12670;53.502;10.252;2023-04-08T16:04:56;30.40;;;15.90;;
16119;SDS011;12670;53.502;10.252;2023-04-08T16:08:00;33.90;;;15.53;;
16119;SDS011;12670;53.502;10.252;2023-04-08T16:11:03;31.13;;;16.03;;
16119;SDS011;12670;53.502;10.252;2023-04-08T16:14:07;35.33;;;16.77;;
16119;SDS011;12670;53.502;10.252;2023-04-08T16:17:09;32.53;;;17.00;;
16119;SDS011;12670;53.502;10.252;2023-04-08T16:20:12;30.77;;;15.93;;
16119;SDS011;12670;53.502;10.252;2023-04-08T16:23:16;36.13;;;18.17;;
16119;SDS011;12670;53.502;10.252;2023-04-08T16:26:19;30.20;;;16.83;;
16119;SDS011;12670;53.502;10.252;2023-04-08T16:29:22;33.77;;;16.57;;
16119;SDS011;12670;53.502;10.252;2023-04-08T16:32:25;31.13;;;16.67;;
16119;SDS011;12670;53.502;10.252;2023-04-08T16:35:28;29.50;;;14.70;;
16119;SDS011;12670;53.502;10.252;2023-04-08T16:38:31;28.27;;;15.30;;
16119;SDS011;12670;53.502;10.252;2023-04-08T16:41:35;59.20;;;27.40;;
16119;SDS011;12670;53.502;10.252;2023-04-08T16:44:39;28.90;;;15.57;;
16119;SDS011;12670;53.502;10.252;2023-04-08T16:47:42;38.07;;;17.83;;
16119;SDS011;12670;53.502;10.252;2023-04-08T16:50:46;30.50;;;15.10;;
16119;SDS011;12670;53.502;10.252;2023-04-08T16:53:50;25.57;;;14.50;;
16119;SDS011;12670;53.502;10.252;2023-04-08T16:56:54;29.40;;;14.03;;
16119;SDS011;12670;53.502;10.252;2023-04-08T16:59:57;26.27;;;14.13;;
16119;SDS011;12670;53.502;10.252;2023-04-08T17:02:59;27.23;;;14.90;;
16119;SDS011;12670;53.502;10.252;2023-04-08T17:06:06;30.13;;;15.13;;
16119;SDS011;12670;53.502;10.252;2023-04-08T17:09:10;34.23;;;17.63;;
16119;SDS011;12670;53.502;10.252;2023-04-08T17:12:13;27.07;;;14.47;;
16119;SDS011;12670;53.502;10.252;2023-04-08T17:15:16;26.40;;;14.70;;
16119;SDS011;12670;53.502;10.252;2023-04-08T17:18:18;28.07;;;13.73;;
16119;SDS011;12670;53.502;10.252;2023-04-08T17:21:21;37.80;;;15.87;;
16119;SDS011;12670;53.502;10.252;2023-04-08T17:24:25;31.63;;;16.83;;
16119;SDS011;12670;53.502;10.252;2023-04-08T17:27:27;31.67;;;16.13;;
16119;SDS011;12670;53.502;10.252;2023-04-08T17:30:30;33.50;;;15.47;;
16119;SDS011;12670;53.502;10.252;2023-04-08T17:33:33;32.87;;;16.70;;
16119;SDS011;12670;53.502;10.252;2023-04-08T17:36:35;33.00;;;16.23;;
16119;SDS011;12670;53.502;10.252;2023-04-08T17:39:39;37.90;;;19.80;;
16119;SDS011;12670;53.502;10.252;2023-04-08T17:42:42;61.47;;;27.67;;
16119;SDS011;12670;53.502;10.252;2023-04-08T17:45:44;46.57;;;19.10;;
16119;SDS011;12670;53.502;10.252;2023-04-08T17:48:50;38.37;;;19.87;;
16119;SDS011;12670;53.502;10.252;2023-04-08T17:51:55;38.50;;;19.90;;
16119;SDS011;12670;53.502;10.252;2023-04-08T17:54:59;40.10;;;21.07;;
16119;SDS011;12670;53.502;10.252;2023-04-08T17:58:02;42.97;;;21.87;;
16119;SDS011;12670;53.502;10.252;2023-04-08T18:01:05;40.37;;;20.70;;
16119;SDS011;12670;53.502;10.252;2023-04-08T18:04:08;41.17;;;20.73;;
16119;SDS011;12670;53.502;10.252;2023-04-08T18:07:12;42.80;;;22.80;;
16119;SDS011;12670;53.502;10.252;2023-04-08T18:10:16;47.10;;;23.83;;
16119;SDS011;12670;53.502;10.252;2023-04-08T18:13:19;50.37;;;24.80;;
16119;SDS011;12670;53.502;10.252;2023-04-08T18:16:22;50.40;;;25.20;;